sensor_id;sensor_type;location;lat;lon;timestamp;P1;durP1;ratioP1;P2;durP2;ratioP2
18899;SDS011;9582;52.018;6.306;2022-08-19T00:01:44;16.50;;;14.90;;
18899;SDS011;9582;52.018;6.306;2022-08-19T00:04:13;19.38;;;17.55;;
18899;SDS011;9582;52.018;6.306;2022-08-19T00:06:42;19.17;;;17.08;;
18899;SDS011;9582;52.018;6.306;2022-08-19T00:09:11;17.50;;;15.77;;
18899;SDS011;9582;52.018;6.306;2022-08-19T00:11:39;18.80;;;16.90;;
18899;SDS011;9582;52.018;6.306;2022-08-19T00:14:09;15.95;;;14.43;;
18899;SDS011;9582;52.018;6.306;2022-08-19T00:16:37;14.73;;;12.55;;
18899;SDS011;9582;52.018;6.306;2022-08-19T00:19:04;15.10;;;13.45;;
18899;SDS011;9582;52.018;6.306;2022-08-19T00:21:31;14.82;;;13.43;;
18899;SDS011;9582;52.018;6.306;2022-08-19T00:24:03;15.88;;;14.25;;
18899;SDS011;9582;52.018;6.306;2022-08-19T00:26:30;16.40;;;14.80;;
18899;SDS011;9582;52.018;6.306;2022-08-19T00:28:57;15.43;;;13.63;;
18899;SDS011;9582;52.018;6.306;2022-08-19T00:31:25;17.27;;;15.68;;
18899;SDS011;9582;52.018;6.306;2022-08-19T00:33:52;18.80;;;15.85;;
18899;SDS011;9582;52.018;6.306;2022-08-19T00:36:19;20.48;;;16.63;;
18899;SDS011;9582;52.018;6.306;2022-08-19T00:38:46;20.88;;;17.92;;
18899;SDS011;9582;52.018;6.306;2022-08-19T00:41:12;18.70;;;16.48;;
18899;SDS011;9582;52.018;6.306;2022-08-19T00:43:41;18.65;;;16.70;;
18899;SDS011;9582;52.018;6.306;2022-08-19T00:46:07;21.17;;;18.88;;
18899;SDS011;9582;52.018;6.306;2022-08-19T00:48:35;19.80;;;17.80;;
18899;SDS011;9582;52.018;6.306;2022-08-19T00:51:03;19.92;;;17.58;;
18899;SDS011;9582;52.018;6.306;2022-08-19T00:53:31;24.13;;;19.52;;
18899;SDS011;9582;52.018;6.306;2022-08-19T00:55:59;24.80;;;19.50;;
18899;SDS011;9582;52.018;6.306;2022-08-19T00:58:31;25.23;;;20.08;;
18899;SDS011;9582;52.018;6.306;2022-08-19T01:01:01;28.90;;;22.17;;
18899;SDS011;9582;52.018;6.306;2022-08-19T01:03:28;27.35;;;20.70;;
18899;SDS011;9582;52.018;6.306;2022-08-19T01:05:56;29.02;;;21.83;;
18899;SDS011;9582;52.018;6.306;2022-08-19T01:08:22;25.77;;;20.17;;
18899;SDS011;9582;52.018;6.306;2022-08-19T01:10:51;28.88;;;21.15;;
18899;SDS011;9582;52.018;6.306;2022-08-19T01:13:21;25.40;;;21.20;;
18899;SDS011;9582;52.018;6.306;2022-08-19T01:15:51;23.90;;;20.13;;
18899;SDS011;9582;52.018;6.306;2022-08-19T01:18:21;26.27;;;21.00;;
18899;SDS011;9582;52.018;6.306;2022-08-19T01:20:47;28.48;;;23.48;;
18899;SDS011;9582;52.018;6.306;2022-08-19T01:23:15;31.85;;;23.15;;
18899;SDS011;9582;52.018;6.306;2022-08-19T01:25:44;33.28;;;24.92;;
18899;SDS011;9582;52.018;6.306;2022-08-19T01:28:16;31.08;;;23.60;;
18899;SDS011;9582;52.018;6.306;2022-08-19T01:30:44;32.08;;;23.88;;
18899;SDS011;9582;52.018;6.306;2022-08-19T01:33:11;24.02;;;20.90;;
18899;SDS011;9582;52.018;6.306;2022-08-19T01:35:38;24.45;;;21.30;;
18899;SDS011;9582;52.018;6.306;2022-08-19T01:38:06;27.35;;;22.65;;
18899;SDS011;9582;52.018;6.306;2022-08-19T01:40:38;27.85;;;21.30;;
18899;SDS011;9582;52.018;6.306;2022-08-19T01:43:07;25.20;;;20.90;;
18899;SDS011;9582;52.018;6.306;2022-08-19T01:45:34;21.27;;;18.98;;
18899;SDS011;9582;52.018;6.306;2022-08-19T01:48:01;21.95;;;18.95;;
18899;SDS011;9582;52.018;6.306;2022-08-19T01:50:29;18.13;;;16.30;;
18899;SDS011;9582;52.018;6.306;2022-08-19T01:52:56;17.17;;;15.50;;
18899;SDS011;9582;52.018;6.306;2022-08-19T01:55:22;17.67;;;15.88;;
18899;SDS011;9582;52.018;6.306;2022-08-19T01:57:51;15.68;;;14.02;;
18899;SDS011;9582;52.018;6.306;2022-08-19T02:00:22;16.73;;;15.13;;
18899;SDS011;9582;52.018;6.306;2022-08-19T02:02:50;15.98;;;14.48;;
18899;SDS011;9582;52.018;6.306;2022-08-19T02:05:16;15.85;;;14.35;;
18899;SDS011;9582;52.018;6.306;2022-08-19T02:07:46;15.32;;;13.73;;
18899;SDS011;9582;52.018;6.306;2022-08-19T02:10:14;13.10;;;11.68;;
18899;SDS011;9582;52.018;6.306;2022-08-19T02:12:43;14.68;;;13.18;;
18899;SDS011;9582;52.018;6.306;2022-08-19T02:15:11;16.80;;;15.10;;
18899;SDS011;9582;52.018;6.306;2022-08-19T02:17:38;18.73;;;16.15;;
18899;SDS011;9582;52.018;6.306;2022-08-19T02:20:05;21.30;;;18.63;;
18899;SDS011;9582;52.018;6.306;2022-08-19T02:22:33;20.33;;;18.02;;
18899;SDS011;9582;52.018;6.306;2022-08-19T02:25:00;20.52;;;18.40;;
18899;SDS011;9582;52.018;6.306;2022-08-19T02:27:29;20.48;;;18.58;;
18899;SDS011;9582;52.018;6.306;2022-08-19T02:29:56;19.77;;;17.65;;
18899;SDS011;9582;52.018;6.306;2022-08-19T02:32:24;20.13;;;17.38;;
18899;SDS011;9582;52.018;6.306;2022-08-19T02:34:50;17.13;;;15.35;;
18899;SDS011;9582;52.018;6.306;2022-08-19T02:37:17;18.52;;;16.67;;
18899;SDS011;9582;52.018;6.306;2022-08-19T02:40:01;22.42;;;19.15;;
18899;SDS011;9582;52.018;6.306;2022-08-19T02:42:29;18.25;;;16.33;;
18899;SDS011;9582;52.018;6.306;2022-08-19T02:44:56;21.80;;;16.45;;
18899;SDS011;9582;52.018;6.306;2022-08-19T02:47:24;19.13;;;17.17;;
18899;SDS011;9582;52.018;6.306;2022-08-19T02:49:50;18.83;;;16.95;;
18899;SDS011;9582;52.018;6.306;2022-08-19T02:52:17;18.58;;;16.63;;
18899;SDS011;9582;52.018;6.306;2022-08-19T02:54:43;17.67;;;15.98;;
18899;SDS011;9582;52.018;6.306;2022-08-19T02:57:10;20.77;;;18.20;;
18899;SDS011;9582;52.018;6.306;2022-08-19T02:59:37;20.88;;;18.58;;
18899;SDS011;9582;52.018;6.306;2022-08-19T03:02:04;18.95;;;16.70;;
18899;SDS011;9582;52.018;6.306;2022-08-19T03:04:32;19.45;;;17.35;;
18899;SDS011;9582;52.018;6.306;2022-08-19T03:06:59;18.83;;;16.83;;
18899;SDS011;9582;52.018;6.306;2022-08-19T03:09:25;18.65;;;16.85;;
18899;SDS011;9582;52.018;6.306;2022-08-19T03:11:52;27.80;;;15.55;;
18899;SDS011;9582;52.018;6.306;2022-08-19T03:14:18;14.77;;;11.30;;
18899;SDS011;9582;52.018;6.306;2022-08-19T03:16:46;11.02;;;10.00;;
18899;SDS011;9582;52.018;6.306;2022-08-19T03:19:15;9.48;;;8.63;;
18899;SDS011;9582;52.018;6.306;2022-08-19T03:21:44;20.90;;;9.60;;
18899;SDS011;9582;52.018;6.306;2022-08-19T03:24:12;14.80;;;8.60;;
18899;SDS011;9582;52.018;6.306;2022-08-19T03:26:39;11.80;;;10.23;;
18899;SDS011;9582;52.018;6.306;2022-08-19T03:29:07;10.80;;;9.90;;
18899;SDS011;9582;52.018;6.306;2022-08-19T03:31:36;9.88;;;8.88;;
18899;SDS011;9582;52.018;6.306;2022-08-19T03:34:04;12.10;;;10.90;;
18899;SDS011;9582;52.018;6.306;2022-08-19T03:36:31;13.63;;;12.32;;
18899;SDS011;9582;52.018;6.306;2022-08-19T03:38:59;14.63;;;13.18;;
18899;SDS011;9582;52.018;6.306;2022-08-19T03:41:27;15.13;;;13.13;;
18899;SDS011;9582;52.018;6.306;2022-08-19T03:43:55;15.23;;;13.75;;
18899;SDS011;9582;52.018;6.306;2022-08-19T03:46:23;14.48;;;12.98;;
18899;SDS011;9582;52.018;6.306;2022-08-19T03:48:51;15.57;;;13.98;;
18899;SDS011;9582;52.018;6.306;2022-08-19T03:51:20;15.75;;;14.15;;
18899;SDS011;9582;52.018;6.306;2022-08-19T03:53:49;15.55;;;14.05;;
18899;SDS011;9582;52.018;6.306;2022-08-19T03:56:18;15.00;;;13.60;;
18899;SDS011;9582;52.018;6.306;2022-08-19T03:58:45;18.23;;;16.33;;
18899;SDS011;9582;52.018;6.306;2022-08-19T04:01:13;18.50;;;15.77;;
18899;SDS011;9582;52.018;6.306;2022-08-19T04:03:42;17.88;;;15.98;;
18899;SDS011;9582;52.018;6.306;2022-08-19T04:06:11;17.85;;;16.05;;
18899;SDS011;9582;52.018;6.306;2022-08-19T04:08:38;21.30;;;18.85;;
18899;SDS011;9582;52.018;6.306;2022-08-19T04:11:06;21.77;;;19.45;;
18899;SDS011;9582;52.018;6.306;2022-08-19T04:13:34;19.63;;;17.58;;
18899;SDS011;9582;52.018;6.306;2022-08-19T04:16:01;18.65;;;16.58;;
18899;SDS011;9582;52.018;6.306;2022-08-19T04:18:29;19.15;;;16.55;;
18899;SDS011;9582;52.018;6.306;2022-08-19T04:20:56;17.67;;;15.80;;
18899;SDS011;9582;52.018;6.306;2022-08-19T04:23:23;16.40;;;14.70;;
18899;SDS011;9582;52.018;6.306;2022-08-19T04:25:49;18.52;;;15.00;;
18899;SDS011;9582;52.018;6.306;2022-08-19T04:28:16;22.60;;;15.82;;
18899;SDS011;9582;52.018;6.306;2022-08-19T04:30:45;16.55;;;14.85;;
18899;SDS011;9582;52.018;6.306;2022-08-19T04:33:14;18.10;;;16.23;;
18899;SDS011;9582;52.018;6.306;2022-08-19T04:35:43;18.85;;;16.98;;
18899;SDS011;9582;52.018;6.306;2022-08-19T04:38:11;17.10;;;15.48;;
18899;SDS011;9582;52.018;6.306;2022-08-19T04:40:39;16.23;;;14.57;;
18899;SDS011;9582;52.018;6.306;2022-08-19T04:43:25;17.05;;;14.80;;
18899;SDS011;9582;52.018;6.306;2022-08-19T04:45:53;17.42;;;15.73;;
18899;SDS011;9582;52.018;6.306;2022-08-19T04:48:20;16.63;;;15.13;;
18899;SDS011;9582;52.018;6.306;2022-08-19T04:50:51;18.63;;;16.70;;
18899;SDS011;9582;52.018;6.306;2022-08-19T04:53:22;17.50;;;15.80;;
18899;SDS011;9582;52.018;6.306;2022-08-19T04:55:49;16.75;;;15.10;;
18899;SDS011;9582;52.018;6.306;2022-08-19T04:58:16;14.60;;;13.30;;
18899;SDS011;9582;52.018;6.306;2022-08-19T05:00:42;13.32;;;12.13;;
18899;SDS011;9582;52.018;6.306;2022-08-19T05:03:11;13.55;;;12.35;;
18899;SDS011;9582;52.018;6.306;2022-08-19T05:05:38;13.40;;;12.20;;
18899;SDS011;9582;52.018;6.306;2022-08-19T05:08:06;14.13;;;12.82;;
18899;SDS011;9582;52.018;6.306;2022-08-19T05:10:34;14.10;;;12.80;;
18899;SDS011;9582;52.018;6.306;2022-08-19T05:13:01;12.70;;;11.70;;
18899;SDS011;9582;52.018;6.306;2022-08-19T05:15:29;20.05;;;14.43;;
18899;SDS011;9582;52.018;6.306;2022-08-19T05:17:56;16.58;;;14.98;;
18899;SDS011;9582;52.018;6.306;2022-08-19T05:20:44;15.55;;;14.13;;
18899;SDS011;9582;52.018;6.306;2022-08-19T05:23:28;16.08;;;14.68;;
18899;SDS011;9582;52.018;6.306;2022-08-19T05:25:55;23.75;;;14.02;;
18899;SDS011;9582;52.018;6.306;2022-08-19T05:28:21;27.15;;;13.38;;
18899;SDS011;9582;52.018;6.306;2022-08-19T05:30:48;13.45;;;12.32;;
18899;SDS011;9582;52.018;6.306;2022-08-19T05:33:15;14.07;;;12.90;;
18899;SDS011;9582;52.018;6.306;2022-08-19T05:35:44;14.95;;;13.55;;
18899;SDS011;9582;52.018;6.306;2022-08-19T05:38:11;17.63;;;14.57;;
18899;SDS011;9582;52.018;6.306;2022-08-19T05:40:38;17.98;;;16.08;;
18899;SDS011;9582;52.018;6.306;2022-08-19T05:43:06;17.27;;;15.48;;
18899;SDS011;9582;52.018;6.306;2022-08-19T05:45:37;16.83;;;15.18;;
18899;SDS011;9582;52.018;6.306;2022-08-19T05:48:04;20.08;;;16.80;;
18899;SDS011;9582;52.018;6.306;2022-08-19T05:50:31;17.77;;;16.08;;
18899;SDS011;9582;52.018;6.306;2022-08-19T05:52:59;18.10;;;16.30;;
18899;SDS011;9582;52.018;6.306;2022-08-19T05:55:26;17.45;;;15.75;;
18899;SDS011;9582;52.018;6.306;2022-08-19T05:57:52;16.75;;;15.25;;
18899;SDS011;9582;52.018;6.306;2022-08-19T06:00:19;17.63;;;16.02;;
18899;SDS011;9582;52.018;6.306;2022-08-19T06:02:45;17.73;;;16.13;;
18899;SDS011;9582;52.018;6.306;2022-08-19T06:05:12;19.00;;;17.25;;
18899;SDS011;9582;52.018;6.306;2022-08-19T06:07:39;18.23;;;16.52;;
18899;SDS011;9582;52.018;6.306;2022-08-19T06:10:08;18.05;;;16.35;;
18899;SDS011;9582;52.018;6.306;2022-08-19T06:12:37;16.75;;;15.25;;
18899;SDS011;9582;52.018;6.306;2022-08-19T06:15:04;16.83;;;15.32;;
18899;SDS011;9582;52.018;6.306;2022-08-19T06:17:33;16.02;;;14.63;;
18899;SDS011;9582;52.018;6.306;2022-08-19T06:20:00;17.40;;;15.70;;
18899;SDS011;9582;52.018;6.306;2022-08-19T06:22:27;19.70;;;17.80;;
18899;SDS011;9582;52.018;6.306;2022-08-19T06:24:54;20.08;;;18.17;;
18899;SDS011;9582;52.018;6.306;2022-08-19T06:27:22;18.23;;;16.50;;
18899;SDS011;9582;52.018;6.306;2022-08-19T06:29:49;18.67;;;16.85;;
18899;SDS011;9582;52.018;6.306;2022-08-19T06:32:16;22.85;;;20.67;;
18899;SDS011;9582;52.018;6.306;2022-08-19T06:34:44;22.98;;;20.67;;
18899;SDS011;9582;52.018;6.306;2022-08-19T06:37:10;22.52;;;20.23;;
18899;SDS011;9582;52.018;6.306;2022-08-19T06:39:38;23.05;;;20.75;;
18899;SDS011;9582;52.018;6.306;2022-08-19T06:42:06;21.98;;;19.65;;
18899;SDS011;9582;52.018;6.306;2022-08-19T06:44:38;23.67;;;21.45;;
18899;SDS011;9582;52.018;6.306;2022-08-19T06:47:07;26.58;;;23.77;;
18899;SDS011;9582;52.018;6.306;2022-08-19T06:49:35;28.33;;;25.52;;
18899;SDS011;9582;52.018;6.306;2022-08-19T06:52:02;29.70;;;25.15;;
18899;SDS011;9582;52.018;6.306;2022-08-19T06:54:29;28.63;;;25.73;;
18899;SDS011;9582;52.018;6.306;2022-08-19T06:56:56;30.75;;;27.65;;
18899;SDS011;9582;52.018;6.306;2022-08-19T06:59:25;31.85;;;28.42;;
18899;SDS011;9582;52.018;6.306;2022-08-19T07:01:56;30.90;;;27.63;;
18899;SDS011;9582;52.018;6.306;2022-08-19T07:04:25;32.22;;;29.02;;
18899;SDS011;9582;52.018;6.306;2022-08-19T07:06:56;30.38;;;27.23;;
18899;SDS011;9582;52.018;6.306;2022-08-19T07:09:24;31.55;;;28.25;;
18899;SDS011;9582;52.018;6.306;2022-08-19T07:11:52;31.75;;;27.65;;
18899;SDS011;9582;52.018;6.306;2022-08-19T07:14:20;31.52;;;27.92;;
18899;SDS011;9582;52.018;6.306;2022-08-19T07:16:48;31.70;;;28.30;;
18899;SDS011;9582;52.018;6.306;2022-08-19T07:19:18;32.33;;;28.15;;
18899;SDS011;9582;52.018;6.306;2022-08-19T07:21:45;32.92;;;27.77;;
18899;SDS011;9582;52.018;6.306;2022-08-19T07:24:12;31.10;;;27.98;;
18899;SDS011;9582;52.018;6.306;2022-08-19T07:26:40;32.30;;;28.88;;
18899;SDS011;9582;52.018;6.306;2022-08-19T07:29:08;32.38;;;28.15;;
18899;SDS011;9582;52.018;6.306;2022-08-19T07:31:36;31.63;;;28.42;;
18899;SDS011;9582;52.018;6.306;2022-08-19T07:34:03;32.55;;;29.08;;
18899;SDS011;9582;52.018;6.306;2022-08-19T07:36:35;32.30;;;27.75;;
18899;SDS011;9582;52.018;6.306;2022-08-19T07:39:04;32.28;;;28.98;;
18899;SDS011;9582;52.018;6.306;2022-08-19T07:41:34;31.52;;;28.23;;
18899;SDS011;9582;52.018;6.306;2022-08-19T07:44:02;33.20;;;29.85;;
18899;SDS011;9582;52.018;6.306;2022-08-19T07:46:29;32.58;;;29.08;;
18899;SDS011;9582;52.018;6.306;2022-08-19T07:48:56;32.50;;;28.58;;
18899;SDS011;9582;52.018;6.306;2022-08-19T07:51:23;31.27;;;27.95;;
18899;SDS011;9582;52.018;6.306;2022-08-19T07:53:51;33.17;;;29.75;;
18899;SDS011;9582;52.018;6.306;2022-08-19T07:56:18;31.55;;;27.98;;
18899;SDS011;9582;52.018;6.306;2022-08-19T07:58:46;32.03;;;28.83;;
18899;SDS011;9582;52.018;6.306;2022-08-19T08:01:18;31.58;;;28.45;;
18899;SDS011;9582;52.018;6.306;2022-08-19T08:03:46;34.35;;;30.67;;
18899;SDS011;9582;52.018;6.306;2022-08-19T08:06:30;32.10;;;28.75;;
18899;SDS011;9582;52.018;6.306;2022-08-19T08:09:16;31.35;;;28.17;;
18899;SDS011;9582;52.018;6.306;2022-08-19T08:11:48;34.00;;;30.30;;
18899;SDS011;9582;52.018;6.306;2022-08-19T08:14:18;34.72;;;31.13;;
18899;SDS011;9582;52.018;6.306;2022-08-19T08:16:46;37.45;;;30.52;;
18899;SDS011;9582;52.018;6.306;2022-08-19T08:19:16;33.95;;;30.42;;
18899;SDS011;9582;52.018;6.306;2022-08-19T08:21:44;35.08;;;31.33;;
18899;SDS011;9582;52.018;6.306;2022-08-19T08:24:10;35.65;;;29.40;;
18899;SDS011;9582;52.018;6.306;2022-08-19T08:26:39;31.75;;;28.45;;
18899;SDS011;9582;52.018;6.306;2022-08-19T08:29:07;32.58;;;28.90;;
18899;SDS011;9582;52.018;6.306;2022-08-19T08:31:38;33.28;;;29.58;;
18899;SDS011;9582;52.018;6.306;2022-08-19T08:34:05;34.00;;;30.15;;
18899;SDS011;9582;52.018;6.306;2022-08-19T08:36:31;32.50;;;27.92;;
18899;SDS011;9582;52.018;6.306;2022-08-19T08:38:58;30.73;;;27.42;;
18899;SDS011;9582;52.018;6.306;2022-08-19T08:41:27;31.63;;;28.30;;
18899;SDS011;9582;52.018;6.306;2022-08-19T08:44:02;33.42;;;29.90;;
18899;SDS011;9582;52.018;6.306;2022-08-19T08:46:30;27.23;;;24.33;;
18899;SDS011;9582;52.018;6.306;2022-08-19T08:49:04;29.23;;;26.08;;
18899;SDS011;9582;52.018;6.306;2022-08-19T08:51:40;27.60;;;24.40;;
18899;SDS011;9582;52.018;6.306;2022-08-19T08:54:10;31.58;;;27.85;;
18899;SDS011;9582;52.018;6.306;2022-08-19T08:56:39;34.25;;;30.48;;
18899;SDS011;9582;52.018;6.306;2022-08-19T08:59:10;33.88;;;30.40;;
18899;SDS011;9582;52.018;6.306;2022-08-19T09:01:42;34.85;;;31.15;;
18899;SDS011;9582;52.018;6.306;2022-08-19T09:04:08;37.65;;;33.47;;
18899;SDS011;9582;52.018;6.306;2022-08-19T09:06:40;36.70;;;32.70;;
18899;SDS011;9582;52.018;6.306;2022-08-19T09:09:17;38.13;;;33.50;;
18899;SDS011;9582;52.018;6.306;2022-08-19T09:11:52;33.38;;;28.98;;
18899;SDS011;9582;52.018;6.306;2022-08-19T09:14:32;31.17;;;27.80;;
18899;SDS011;9582;52.018;6.306;2022-08-19T09:17:03;29.60;;;24.30;;
18899;SDS011;9582;52.018;6.306;2022-08-19T09:19:33;31.80;;;27.33;;
18899;SDS011;9582;52.018;6.306;2022-08-19T09:22:01;44.92;;;35.47;;
18899;SDS011;9582;52.018;6.306;2022-08-19T09:24:27;48.42;;;35.40;;
18899;SDS011;9582;52.018;6.306;2022-08-19T09:26:54;45.53;;;36.80;;
18899;SDS011;9582;52.018;6.306;2022-08-19T09:29:20;44.03;;;34.30;;
18899;SDS011;9582;52.018;6.306;2022-08-19T09:31:48;37.72;;;32.25;;
18899;SDS011;9582;52.018;6.306;2022-08-19T09:34:15;41.58;;;33.22;;
18899;SDS011;9582;52.018;6.306;2022-08-19T09:36:44;43.47;;;31.40;;
18899;SDS011;9582;52.018;6.306;2022-08-19T09:39:10;38.17;;;29.40;;
18899;SDS011;9582;52.018;6.306;2022-08-19T09:41:37;36.03;;;29.00;;
18899;SDS011;9582;52.018;6.306;2022-08-19T09:44:03;32.65;;;25.58;;
18899;SDS011;9582;52.018;6.306;2022-08-19T09:46:30;27.50;;;23.67;;
18899;SDS011;9582;52.018;6.306;2022-08-19T09:48:59;29.33;;;24.60;;
18899;SDS011;9582;52.018;6.306;2022-08-19T09:51:26;30.23;;;24.85;;
18899;SDS011;9582;52.018;6.306;2022-08-19T09:53:54;28.20;;;24.80;;
18899;SDS011;9582;52.018;6.306;2022-08-19T09:56:25;29.23;;;24.65;;
18899;SDS011;9582;52.018;6.306;2022-08-19T09:58:51;31.05;;;26.55;;
18899;SDS011;9582;52.018;6.306;2022-08-19T10:01:19;31.63;;;25.30;;
18899;SDS011;9582;52.018;6.306;2022-08-19T10:03:48;31.08;;;24.80;;
18899;SDS011;9582;52.018;6.306;2022-08-19T10:06:18;25.80;;;23.02;;
18899;SDS011;9582;52.018;6.306;2022-08-19T10:08:45;29.38;;;23.35;;
18899;SDS011;9582;52.018;6.306;2022-08-19T10:11:12;26.25;;;22.17;;
18899;SDS011;9582;52.018;6.306;2022-08-19T10:13:41;24.52;;;21.75;;
18899;SDS011;9582;52.018;6.306;2022-08-19T10:16:09;24.25;;;21.40;;
18899;SDS011;9582;52.018;6.306;2022-08-19T10:18:43;23.48;;;21.02;;
18899;SDS011;9582;52.018;6.306;2022-08-19T10:21:10;20.42;;;18.25;;
18899;SDS011;9582;52.018;6.306;2022-08-19T10:23:41;20.00;;;17.08;;
18899;SDS011;9582;52.018;6.306;2022-08-19T10:26:11;15.95;;;13.98;;
18899;SDS011;9582;52.018;6.306;2022-08-19T10:28:39;15.15;;;13.65;;
18899;SDS011;9582;52.018;6.306;2022-08-19T10:31:06;14.15;;;12.65;;
18899;SDS011;9582;52.018;6.306;2022-08-19T10:33:34;15.23;;;11.43;;
18899;SDS011;9582;52.018;6.306;2022-08-19T10:36:02;13.70;;;10.65;;
18899;SDS011;9582;52.018;6.306;2022-08-19T10:38:30;10.80;;;9.73;;
18899;SDS011;9582;52.018;6.306;2022-08-19T10:40:57;12.85;;;11.55;;
18899;SDS011;9582;52.018;6.306;2022-08-19T10:43:31;11.93;;;10.60;;
18899;SDS011;9582;52.018;6.306;2022-08-19T10:45:59;11.82;;;9.98;;
18899;SDS011;9582;52.018;6.306;2022-08-19T10:48:25;11.80;;;10.60;;
18899;SDS011;9582;52.018;6.306;2022-08-19T10:50:52;15.57;;;13.73;;
18899;SDS011;9582;52.018;6.306;2022-08-19T10:53:36;12.75;;;11.45;;
18899;SDS011;9582;52.018;6.306;2022-08-19T10:56:04;19.60;;;15.30;;
18899;SDS011;9582;52.018;6.306;2022-08-19T10:58:48;17.40;;;15.25;;
18899;SDS011;9582;52.018;6.306;2022-08-19T11:01:15;19.98;;;16.77;;
18899;SDS011;9582;52.018;6.306;2022-08-19T11:03:41;26.35;;;20.58;;
18899;SDS011;9582;52.018;6.306;2022-08-19T11:06:10;31.80;;;25.92;;
18899;SDS011;9582;52.018;6.306;2022-08-19T11:08:37;37.53;;;25.48;;
18899;SDS011;9582;52.018;6.306;2022-08-19T11:11:06;31.35;;;25.45;;
18899;SDS011;9582;52.018;6.306;2022-08-19T11:13:33;31.38;;;24.45;;
18899;SDS011;9582;52.018;6.306;2022-08-19T11:16:04;34.15;;;27.08;;
18899;SDS011;9582;52.018;6.306;2022-08-19T11:18:33;38.38;;;26.70;;
18899;SDS011;9582;52.018;6.306;2022-08-19T11:21:08;29.60;;;22.98;;
18899;SDS011;9582;52.018;6.306;2022-08-19T11:23:37;30.60;;;24.63;;
18899;SDS011;9582;52.018;6.306;2022-08-19T11:26:03;25.58;;;19.65;;
18899;SDS011;9582;52.018;6.306;2022-08-19T11:28:31;21.20;;;18.40;;
18899;SDS011;9582;52.018;6.306;2022-08-19T11:30:58;30.42;;;24.30;;
18899;SDS011;9582;52.018;6.306;2022-08-19T11:33:25;25.67;;;21.30;;
18899;SDS011;9582;52.018;6.306;2022-08-19T11:35:52;24.35;;;20.50;;
18899;SDS011;9582;52.018;6.306;2022-08-19T11:38:19;23.13;;;19.88;;
18899;SDS011;9582;52.018;6.306;2022-08-19T11:40:53;25.33;;;21.45;;
18899;SDS011;9582;52.018;6.306;2022-08-19T11:43:21;24.63;;;20.20;;
18899;SDS011;9582;52.018;6.306;2022-08-19T11:45:48;21.77;;;18.83;;
18899;SDS011;9582;52.018;6.306;2022-08-19T11:48:15;22.38;;;19.35;;
18899;SDS011;9582;52.018;6.306;2022-08-19T11:50:42;20.73;;;18.52;;
18899;SDS011;9582;52.018;6.306;2022-08-19T11:53:08;21.23;;;17.63;;
18899;SDS011;9582;52.018;6.306;2022-08-19T11:55:36;18.83;;;16.83;;
18899;SDS011;9582;52.018;6.306;2022-08-19T11:58:04;20.02;;;17.17;;
18899;SDS011;9582;52.018;6.306;2022-08-19T12:00:34;20.30;;;16.20;;
18899;SDS011;9582;52.018;6.306;2022-08-19T12:03:01;19.85;;;15.45;;
18899;SDS011;9582;52.018;6.306;2022-08-19T12:05:28;16.33;;;14.50;;
18899;SDS011;9582;52.018;6.306;2022-08-19T12:07:54;16.08;;;14.32;;
18899;SDS011;9582;52.018;6.306;2022-08-19T12:10:21;15.50;;;13.85;;
18899;SDS011;9582;52.018;6.306;2022-08-19T12:12:49;17.98;;;13.40;;
18899;SDS011;9582;52.018;6.306;2022-08-19T12:15:16;14.60;;;12.95;;
18899;SDS011;9582;52.018;6.306;2022-08-19T12:17:44;18.30;;;14.20;;
18899;SDS011;9582;52.018;6.306;2022-08-19T12:20:11;14.63;;;12.52;;
18899;SDS011;9582;52.018;6.306;2022-08-19T12:22:41;16.67;;;13.98;;
18899;SDS011;9582;52.018;6.306;2022-08-19T12:25:08;17.98;;;14.70;;
18899;SDS011;9582;52.018;6.306;2022-08-19T12:27:35;17.55;;;14.38;;
18899;SDS011;9582;52.018;6.306;2022-08-19T12:30:02;18.45;;;15.70;;
18899;SDS011;9582;52.018;6.306;2022-08-19T12:32:29;18.33;;;16.08;;
18899;SDS011;9582;52.018;6.306;2022-08-19T12:34:56;20.40;;;16.63;;
18899;SDS011;9582;52.018;6.306;2022-08-19T12:37:23;19.17;;;15.52;;
18899;SDS011;9582;52.018;6.306;2022-08-19T12:39:49;14.85;;;12.98;;
18899;SDS011;9582;52.018;6.306;2022-08-19T12:42:16;13.85;;;11.65;;
18899;SDS011;9582;52.018;6.306;2022-08-19T12:44:43;18.08;;;15.07;;
18899;SDS011;9582;52.018;6.306;2022-08-19T12:47:11;19.75;;;16.10;;
18899;SDS011;9582;52.018;6.306;2022-08-19T12:49:39;19.98;;;15.18;;
18899;SDS011;9582;52.018;6.306;2022-08-19T12:52:08;20.52;;;17.63;;
18899;SDS011;9582;52.018;6.306;2022-08-19T12:54:35;21.08;;;17.80;;
18899;SDS011;9582;52.018;6.306;2022-08-19T12:57:04;19.67;;;16.60;;
18899;SDS011;9582;52.018;6.306;2022-08-19T12:59:32;18.27;;;15.55;;
18899;SDS011;9582;52.018;6.306;2022-08-19T13:01:59;20.55;;;17.20;;
18899;SDS011;9582;52.018;6.306;2022-08-19T13:04:26;21.80;;;19.42;;
18899;SDS011;9582;52.018;6.306;2022-08-19T13:06:52;16.48;;;13.35;;
18899;SDS011;9582;52.018;6.306;2022-08-19T13:09:20;17.67;;;15.82;;
18899;SDS011;9582;52.018;6.306;2022-08-19T13:11:47;18.23;;;16.35;;
18899;SDS011;9582;52.018;6.306;2022-08-19T13:14:13;19.48;;;16.67;;
18899;SDS011;9582;52.018;6.306;2022-08-19T13:16:39;18.35;;;16.40;;
18899;SDS011;9582;52.018;6.306;2022-08-19T13:19:06;17.52;;;14.32;;
18899;SDS011;9582;52.018;6.306;2022-08-19T13:21:32;17.00;;;15.20;;
18899;SDS011;9582;52.018;6.306;2022-08-19T13:23:59;13.48;;;12.07;;
18899;SDS011;9582;52.018;6.306;2022-08-19T13:26:27;18.00;;;15.63;;
18899;SDS011;9582;52.018;6.306;2022-08-19T13:28:53;18.33;;;15.18;;
18899;SDS011;9582;52.018;6.306;2022-08-19T13:31:39;17.67;;;15.45;;
18899;SDS011;9582;52.018;6.306;2022-08-19T13:34:30;21.48;;;16.92;;
18899;SDS011;9582;52.018;6.306;2022-08-19T13:36:59;16.23;;;12.65;;
18899;SDS011;9582;52.018;6.306;2022-08-19T13:39:28;12.68;;;10.90;;
18899;SDS011;9582;52.018;6.306;2022-08-19T13:41:55;18.45;;;16.55;;
18899;SDS011;9582;52.018;6.306;2022-08-19T13:44:24;18.98;;;16.88;;
18899;SDS011;9582;52.018;6.306;2022-08-19T13:46:51;19.85;;;16.77;;
18899;SDS011;9582;52.018;6.306;2022-08-19T13:49:18;18.35;;;16.30;;
18899;SDS011;9582;52.018;6.306;2022-08-19T13:51:45;14.68;;;12.10;;
18899;SDS011;9582;52.018;6.306;2022-08-19T13:54:12;15.13;;;12.77;;
18899;SDS011;9582;52.018;6.306;2022-08-19T13:56:40;14.00;;;10.77;;
18899;SDS011;9582;52.018;6.306;2022-08-19T13:59:08;16.55;;;14.85;;
18899;SDS011;9582;52.018;6.306;2022-08-19T14:01:36;15.35;;;13.75;;
18899;SDS011;9582;52.018;6.306;2022-08-19T14:04:03;15.85;;;13.05;;
18899;SDS011;9582;52.018;6.306;2022-08-19T14:06:33;14.25;;;12.68;;
18899;SDS011;9582;52.018;6.306;2022-08-19T14:09:00;16.02;;;14.40;;
18899;SDS011;9582;52.018;6.306;2022-08-19T14:11:27;20.13;;;15.88;;
18899;SDS011;9582;52.018;6.306;2022-08-19T14:13:53;19.20;;;16.15;;
18899;SDS011;9582;52.018;6.306;2022-08-19T14:16:21;20.08;;;15.85;;
18899;SDS011;9582;52.018;6.306;2022-08-19T14:18:48;17.17;;;15.43;;
18899;SDS011;9582;52.018;6.306;2022-08-19T14:21:15;20.20;;;18.02;;
18899;SDS011;9582;52.018;6.306;2022-08-19T14:23:43;20.60;;;17.63;;
18899;SDS011;9582;52.018;6.306;2022-08-19T14:26:11;23.55;;;19.73;;
18899;SDS011;9582;52.018;6.306;2022-08-19T14:28:39;22.17;;;19.83;;
18899;SDS011;9582;52.018;6.306;2022-08-19T14:31:07;20.80;;;18.45;;
18899;SDS011;9582;52.018;6.306;2022-08-19T14:33:35;22.98;;;20.58;;
18899;SDS011;9582;52.018;6.306;2022-08-19T14:36:01;22.33;;;20.02;;
18899;SDS011;9582;52.018;6.306;2022-08-19T14:38:29;24.40;;;21.83;;
18899;SDS011;9582;52.018;6.306;2022-08-19T14:40:56;24.60;;;22.15;;
18899;SDS011;9582;52.018;6.306;2022-08-19T14:43:32;23.10;;;20.75;;